Fremont, Michigan
Current Conditions -  °F | °C
As of 2:54 PM on Saturday 25 Oct 2014 (Local Time) from KFFX Reporting Station
Clear Clear  
Wind Chill: 64°   Ceiling: Unl
Heat Index: 64°   Visibility: 7mi
Dew Point: 31°   Wind: 18mph
Humidity: 30%   Direction: 290°WNW
Pressure: 29.81"   Gusts: 25mph
Location:  43.46°N, 85.95°W
Report Text: KFFX 251854Z AUTO 29016G22KT 7SM CLR 18/00 A2981 RMK AO2 T01771003
Loading
Personal Weather Stations






























Interactive Weather Map
Tropical Storm Tracking
New forecast layout! Learn more

10-Day Weather Forecast

Advertisements
Track Severe Weather on mobile